Time;durP1;ratioP1;P1;durP2;ratioP2;P2;SDS_P1;SDS_P2;PMS_P1;PMS_P2;Temp;Humidity;BMP_temperature;BMP_pressure;BME280_temperature;BME280_humidity;BME280_pressure;Samples;Min_cycle;Max_cycle;Signal;HPM_P1;HPM_P2
2021/01/22 00:00:59;;;;;;;47.03;19.95;;;1.00;99.90;;;;;;5083502;28;20222;-75
2021/01/22 00:03:26;;;;;;;16.85;15.35;;;1.00;99.90;;;;;;5084896;28;20222;-74
2021/01/22 00:05:52;;;;;;;17.08;15.40;;;1.00;99.90;;;;;;5083569;28;20225;-76
2021/01/22 00:08:19;;;;;;;17.80;16.20;;;1.00;99.90;;;;;;5081977;28;20231;-75
2021/01/22 00:10:45;;;;;;;18.33;16.52;;;1.00;99.90;;;;;;5085808;28;20272;-75
2021/01/22 00:13:13;;;;;;;16.02;14.63;;;1.00;99.90;;;;;;5083636;28;20272;-75
2021/01/22 00:15:39;;;;;;;14.77;13.48;;;1.00;99.90;;;;;;5089725;28;20229;-76
2021/01/22 00:18:06;;;;;;;15.65;14.25;;;1.10;99.90;;;;;;5083985;28;20223;-77
2021/01/22 00:20:33;;;;;;;14.95;13.60;;;1.20;99.90;;;;;;5088089;28;20217;-75
2021/01/22 00:22:59;;;;;;;14.77;13.45;;;1.20;99.90;;;;;;5089263;28;20221;-75
2021/01/22 00:25:26;;;;;;;14.98;13.68;;;1.20;99.90;;;;;;5090114;28;20226;-76
2021/01/22 00:27:52;;;;;;;15.27;13.88;;;1.20;99.90;;;;;;5092158;28;20232;-75
2021/01/22 00:30:20;;;;;;;15.52;14.13;;;1.20;99.90;;;;;;5084619;28;20220;-75
2021/01/22 00:32:47;;;;;;;14.57;13.27;;;1.20;99.90;;;;;;5091918;28;20705;-77
2021/01/22 00:35:13;;;;;;;14.32;13.02;;;1.20;99.90;;;;;;5096155;28;20889;-76
2021/01/22 00:37:40;;;;;;;13.57;12.45;;;1.20;99.90;;;;;;5088720;28;20220;-75
2021/01/22 00:40:08;;;;;;;14.27;12.98;;;1.30;99.90;;;;;;5088558;28;20216;-75
2021/01/22 00:42:35;;;;;;;13.45;12.25;;;1.30;99.90;;;;;;5083781;28;20702;-75
2021/01/22 00:45:02;;;;;;;13.45;12.25;;;1.30;99.90;;;;;;5087596;28;20270;-74
2021/01/22 00:47:29;;;;;;;13.27;12.18;;;1.40;99.90;;;;;;5085378;28;20225;-75
2021/01/22 00:49:56;;;;;;;12.57;11.48;;;1.40;99.90;;;;;;5093932;28;20237;-74
2021/01/22 00:52:22;;;;;;;12.30;11.30;;;1.40;99.90;;;;;;5088869;28;20225;-75
2021/01/22 00:54:49;;;;;;;11.35;10.35;;;1.50;99.90;;;;;;5086187;28;20224;-76
2021/01/22 00:57:15;;;;;;;11.55;10.63;;;1.40;99.90;;;;;;5089301;28;20274;-74
2021/01/22 00:59:42;;;;;;;11.43;10.52;;;1.40;99.90;;;;;;5084068;28;20213;-75
2021/01/22 01:02:09;;;;;;;11.43;10.50;;;1.40;99.90;;;;;;5086229;28;20245;-75
2021/01/22 01:04:36;;;;;;;10.82;9.93;;;1.40;99.90;;;;;;5086862;28;20304;-75
2021/01/22 01:07:03;;;;;;;10.07;9.27;;;1.40;99.90;;;;;;5086872;28;20232;-75
2021/01/22 01:09:30;;;;;;;10.85;9.98;;;1.40;99.90;;;;;;5089902;28;20217;-76
2021/01/22 01:11:56;;;;;;;10.80;9.85;;;1.50;99.90;;;;;;5089867;28;20239;-75
2021/01/22 01:14:23;;;;;;;14.20;12.85;;;1.40;99.90;;;;;;5097004;28;20229;-75
2021/01/22 01:16:49;;;;;;;31.38;13.35;;;1.40;99.90;;;;;;5086422;28;20230;-75
2021/01/22 01:19:16;;;;;;;15.40;14.10;;;1.40;99.90;;;;;;5095123;28;20221;-75
2021/01/22 01:21:44;;;;;;;15.73;14.32;;;1.30;99.90;;;;;;5094007;28;20691;-75
2021/01/22 01:24:11;;;;;;;16.55;15.10;;;1.20;99.90;;;;;;5091797;28;20711;-75
2021/01/22 01:26:37;;;;;;;16.05;14.50;;;1.10;99.90;;;;;;5109138;28;20238;-76
2021/01/22 01:29:04;;;;;;;16.00;14.50;;;1.10;99.90;;;;;;5090976;28;20227;-75
2021/01/22 01:31:30;;;;;;;16.35;14.85;;;1.00;99.90;;;;;;5096448;28;20229;-75
2021/01/22 01:33:57;;;;;;;15.73;14.32;;;1.00;99.90;;;;;;5092451;28;20225;-76
2021/01/22 01:36:23;;;;;;;13.90;12.70;;;1.00;99.90;;;;;;5093220;28;20205;-75
2021/01/22 01:38:51;;;;;;;14.13;12.90;;;1.00;99.90;;;;;;5089979;28;20221;-75
2021/01/22 01:41:17;;;;;;;13.55;12.35;;;1.10;99.90;;;;;;5085191;28;20233;-75
2021/01/22 01:43:44;;;;;;;13.75;12.55;;;1.20;99.90;;;;;;5090970;28;20222;-75
2021/01/22 01:46:10;;;;;;;13.70;12.50;;;1.30;99.90;;;;;;5091327;28;20221;-76
2021/01/22 01:48:37;;;;;;;35.88;16.08;;;1.30;99.90;;;;;;5096454;28;20266;-75
2021/01/22 01:51:04;;;;;;;45.50;15.50;;;1.30;99.90;;;;;;5093017;28;20229;-75
2021/01/22 01:53:31;;;;;;;16.33;14.82;;;1.20;99.90;;;;;;5090990;28;20267;-76
2021/01/22 01:55:59;;;;;;;14.80;13.50;;;1.10;99.90;;;;;;5096223;28;20220;-77
2021/01/22 01:58:26;;;;;;;13.50;12.30;;;1.10;99.90;;;;;;5094438;28;20244;-75
2021/01/22 02:00:53;;;;;;;13.35;12.25;;;1.20;99.90;;;;;;5089857;28;20228;-74
2021/01/22 02:03:20;;;;;;;12.63;11.52;;;1.20;99.90;;;;;;5111163;28;20532;-77
2021/01/22 02:05:47;;;;;;;11.27;10.27;;;1.30;99.90;;;;;;5094849;28;20217;-76
2021/01/22 02:08:15;;;;;;;10.88;10.02;;;1.30;99.90;;;;;;5089882;28;20295;-75
2021/01/22 02:10:43;;;;;;;11.45;10.45;;;1.40;99.90;;;;;;5091633;28;20597;-75
2021/01/22 02:13:12;;;;;;;10.27;9.48;;;1.40;99.90;;;;;;5093328;28;20624;-75
2021/01/22 02:15:39;;;;;;;10.32;9.43;;;1.50;99.90;;;;;;5082580;28;20298;-74
2021/01/22 02:18:07;;;;;;;12.40;11.30;;;1.40;99.90;;;;;;5092089;28;20221;-75
2021/01/22 02:20:48;;;;;;;14.32;13.13;;;1.40;99.90;;;;;;5108149;28;20228;-76
2021/01/22 02:23:17;;;;;;;14.27;13.00;;;1.40;99.90;;;;;;5086049;28;20236;-75
2021/01/22 02:25:45;;;;;;;13.90;12.70;;;1.30;99.90;;;;;;5091845;28;20224;-75
2021/01/22 02:28:14;;;;;;;14.77;13.50;;;1.30;99.90;;;;;;5087038;28;20228;-75
2021/01/22 02:30:43;;;;;;;12.95;11.85;;;1.30;99.90;;;;;;5084130;28;20687;-74
2021/01/22 02:33:12;;;;;;;12.32;11.27;;;1.20;99.90;;;;;;5087079;28;20641;-75
2021/01/22 02:35:40;;;;;;;13.00;11.90;;;1.20;99.90;;;;;;5084500;28;20222;-75
2021/01/22 02:38:08;;;;;;;13.10;11.95;;;1.20;99.90;;;;;;5086944;28;20255;-76
2021/01/22 02:40:36;;;;;;;12.25;11.25;;;1.20;99.90;;;;;;5086702;28;20224;-75
2021/01/22 02:43:04;;;;;;;12.40;11.40;;;1.20;99.90;;;;;;5085095;28;20224;-75
2021/01/22 02:45:32;;;;;;;10.88;9.98;;;1.20;99.90;;;;;;5093683;28;20210;-74
2021/01/22 02:47:59;;;;;;;11.43;10.43;;;1.20;99.90;;;;;;5087688;28;20226;-73
2021/01/22 02:50:33;;;;;;;11.55;10.55;;;1.20;99.90;;;;;;5088629;28;20751;-75
2021/01/22 02:53:00;;;;;;;12.23;11.23;;;1.20;99.90;;;;;;5079593;28;20225;-75
2021/01/22 02:55:27;;;;;;;12.45;11.45;;;1.10;99.90;;;;;;5093190;28;20236;-75
2021/01/22 02:57:59;;;;;;;12.07;11.13;;;1.20;99.90;;;;;;5088673;28;20688;-74
2021/01/22 03:00:29;;;;;;;11.88;10.90;;;1.20;99.90;;;;;;5094614;28;20232;-74
2021/01/22 03:03:07;;;;;;;10.95;10.05;;;1.20;99.90;;;;;;5085903;28;20248;-75
2021/01/22 03:05:36;;;;;;;11.10;10.20;;;1.20;99.90;;;;;;5086864;28;20221;-75
2021/01/22 03:08:08;;;;;;;11.15;10.25;;;1.30;99.90;;;;;;5088349;28;20221;-75
2021/01/22 03:10:37;;;;;;;10.10;9.30;;;1.30;99.90;;;;;;5090294;28;20213;-75
2021/01/22 03:13:04;;;;;;;10.52;9.70;;;1.30;99.90;;;;;;5102224;28;20216;-75
2021/01/22 03:15:33;;;;;;;9.98;9.18;;;1.30;99.90;;;;;;5084054;28;20275;-75
2021/01/22 03:18:14;;;;;;;9.40;8.70;;;1.40;99.90;;;;;;5092788;28;20300;-75
2021/01/22 03:20:42;;;;;;;9.88;9.07;;;1.40;99.90;;;;;;5082348;28;20217;-75
2021/01/22 03:23:08;;;;;;;11.48;10.48;;;1.40;99.90;;;;;;5090252;28;20307;-75
2021/01/22 03:25:35;;;;;;;11.05;10.25;;;1.50;99.90;;;;;;5085504;28;20220;-75
2021/01/22 03:28:02;;;;;;;11.27;10.38;;;1.40;99.90;;;;;;5086186;28;20226;-74
2021/01/22 03:30:28;;;;;;;10.70;9.88;;;1.40;99.90;;;;;;5085524;28;20227;-76
2021/01/22 03:32:55;;;;;;;11.07;10.18;;;1.40;99.90;;;;;;5092636;28;20228;-74
2021/01/22 03:35:22;;;;;;;10.65;9.75;;;1.40;99.90;;;;;;5080530;28;20299;-75
2021/01/22 03:37:49;;;;;;;11.13;10.23;;;1.40;99.90;;;;;;5084055;28;20282;-75
2021/01/22 03:40:16;;;;;;;11.10;10.30;;;1.40;99.90;;;;;;5081560;28;20217;-75
2021/01/22 03:42:42;;;;;;;11.90;10.98;;;1.40;99.90;;;;;;5086984;28;20245;-76
2021/01/22 03:45:10;;;;;;;11.90;10.90;;;1.40;99.90;;;;;;5084151;28;20240;-75
2021/01/22 03:47:37;;;;;;;12.73;11.70;;;1.50;99.90;;;;;;5087015;28;20702;-75
2021/01/22 03:50:04;;;;;;;13.18;12.02;;;1.50;99.90;;;;;;5090055;28;20217;-75
2021/01/22 03:52:32;;;;;;;11.90;10.90;;;1.50;99.90;;;;;;5087616;28;20229;-75
2021/01/22 03:54:58;;;;;;;13.57;12.30;;;1.40;99.90;;;;;;5081257;28;20734;-75
2021/01/22 03:57:25;;;;;;;11.20;10.30;;;1.50;99.90;;;;;;5089700;28;20762;-75
2021/01/22 03:59:51;;;;;;;10.95;10.07;;;1.50;99.90;;;;;;5085558;28;20243;-76
2021/01/22 04:02:19;;;;;;;10.30;9.50;;;1.50;99.90;;;;;;5085769;28;20237;-75
2021/01/22 04:04:45;;;;;;;11.45;10.45;;;1.50;99.90;;;;;;5094733;28;20312;-76
2021/01/22 04:07:12;;;;;;;11.23;10.30;;;1.50;99.90;;;;;;5098024;28;20222;-73
2021/01/22 04:09:39;;;;;;;11.27;10.35;;;1.50;99.90;;;;;;5088933;28;20261;-76
2021/01/22 04:12:06;;;;;;;12.55;11.40;;;1.50;99.90;;;;;;5084479;28;20233;-76
2021/01/22 04:14:33;;;;;;;12.93;11.75;;;1.50;99.90;;;;;;5092762;28;20228;-74
2021/01/22 04:17:00;;;;;;;11.70;10.73;;;1.50;99.90;;;;;;5086257;28;20651;-75
2021/01/22 04:19:27;;;;;;;14.35;13.05;;;1.50;99.90;;;;;;5082853;28;20228;-75
2021/01/22 04:21:55;;;;;;;16.42;14.90;;;1.50;99.90;;;;;;5086573;28;20236;-75
2021/01/22 04:24:21;;;;;;;14.52;13.30;;;1.40;99.90;;;;;;5087988;28;20449;-75
2021/01/22 04:26:51;;;;;;;13.57;12.38;;;1.40;99.90;;;;;;5088705;28;20258;-75
2021/01/22 04:29:18;;;;;;;11.98;10.88;;;1.40;99.90;;;;;;5084449;28;20225;-75
2021/01/22 04:31:45;;;;;;;12.23;11.23;;;1.40;99.90;;;;;;5080520;28;20329;-74
2021/01/22 04:34:11;;;;;;;11.55;10.55;;;1.40;99.90;;;;;;5084249;28;20221;-75
2021/01/22 04:36:38;;;;;;;9.45;8.65;;;1.40;99.90;;;;;;5088133;28;20270;-75
2021/01/22 04:39:06;;;;;;;10.30;9.45;;;1.50;99.90;;;;;;5083324;28;20216;-76
2021/01/22 04:41:33;;;;;;;9.75;8.95;;;1.50;99.90;;;;;;5088890;28;20946;-73
2021/01/22 04:44:01;;;;;;;11.93;10.88;;;1.60;99.90;;;;;;5083478;28;20274;-75
2021/01/22 04:46:32;;;;;;;9.40;8.70;;;1.60;99.90;;;;;;5083441;28;20275;-76
2021/01/22 04:48:59;;;;;;;10.27;9.48;;;1.60;99.90;;;;;;5081104;28;20607;-76
2021/01/22 04:51:26;;;;;;;10.80;9.80;;;1.60;99.90;;;;;;5086143;28;20240;-75
2021/01/22 04:53:56;;;;;;;10.10;9.20;;;1.60;99.90;;;;;;5082435;28;20223;-72
2021/01/22 04:56:25;;;;;;;9.23;8.52;;;1.60;99.90;;;;;;5085884;28;21806;-74
2021/01/22 04:58:56;;;;;;;10.23;9.43;;;1.60;99.90;;;;;;5086291;28;20234;-76
2021/01/22 05:01:24;;;;;;;8.90;8.30;;;1.60;99.90;;;;;;5097191;28;20220;-75
2021/01/22 05:03:52;;;;;;;10.05;9.27;;;1.70;99.90;;;;;;5089488;28;20229;-76
2021/01/22 05:06:18;;;;;;;26.98;13.05;;;1.70;99.90;;;;;;5087384;28;20244;-75
2021/01/22 05:08:45;;;;;;;295.70;21.33;;;1.70;99.90;;;;;;5081322;28;20218;-75
2021/01/22 05:11:12;;;;;;;136.45;18.58;;;1.60;99.90;;;;;;5082941;28;20225;-76
2021/01/22 05:13:39;;;;;;;13.75;12.55;;;1.50;99.90;;;;;;5082939;28;20224;-75
2021/01/22 05:16:09;;;;;;;21.05;11.88;;;1.30;99.90;;;;;;5081837;28;20220;-75
2021/01/22 05:18:36;;;;;;;13.38;12.15;;;1.20;99.90;;;;;;5093685;28;20229;-77
2021/01/22 05:21:07;;;;;;;14.15;12.70;;;1.20;99.90;;;;;;5087105;28;20236;-75
2021/01/22 05:23:34;;;;;;;11.63;10.63;;;1.10;99.90;;;;;;5086780;28;20313;-75
2021/01/22 05:26:03;;;;;;;11.65;10.65;;;1.20;99.90;;;;;;5090083;28;20221;-76
2021/01/22 05:28:37;;;;;;;11.88;10.88;;;1.20;99.90;;;;;;5091005;28;20245;-75
2021/01/22 05:31:05;;;;;;;11.25;10.35;;;1.30;99.90;;;;;;5088253;28;20223;-76
2021/01/22 05:33:31;;;;;;;11.90;10.95;;;1.30;99.90;;;;;;5083446;28;20236;-75
2021/01/22 05:36:19;;;;;;;13.45;11.95;;;1.30;99.90;;;;;;5079900;28;20225;-75
2021/01/22 05:38:46;;;;;;;21.15;12.43;;;1.30;99.90;;;;;;5089363;28;20220;-75
2021/01/22 05:41:12;;;;;;;49.80;12.48;;;1.30;99.90;;;;;;5086656;28;20267;-75
2021/01/22 05:43:39;;;;;;;12.70;11.70;;;1.30;99.90;;;;;;5083390;28;20226;-76
2021/01/22 05:46:12;;;;;;;13.55;12.32;;;1.30;99.90;;;;;;5085722;28;20220;-76
2021/01/22 05:48:39;;;;;;;13.43;12.32;;;1.30;99.90;;;;;;5089223;28;20269;-74
2021/01/22 05:51:07;;;;;;;12.82;11.65;;;1.20;99.90;;;;;;5089982;28;20228;-75
2021/01/22 05:53:34;;;;;;;12.20;11.00;;;1.20;99.90;;;;;;5093937;28;20224;-75
2021/01/22 05:56:07;;;;;;;13.18;11.98;;;1.30;99.90;;;;;;5084578;28;20217;-76
2021/01/22 05:58:35;;;;;;;12.23;11.07;;;1.30;99.90;;;;;;5090402;28;20219;-75
2021/01/22 06:01:09;;;;;;;12.00;11.00;;;1.40;99.90;;;;;;5092645;27;20744;-75
2021/01/22 06:03:37;;;;;;;12.05;11.02;;;1.40;99.90;;;;;;5090363;28;20261;-74
2021/01/22 06:06:06;;;;;;;12.18;11.18;;;1.40;99.90;;;;;;5088743;28;20221;-75
2021/01/22 06:08:33;;;;;;;12.25;11.15;;;1.40;99.90;;;;;;5089392;28;20285;-75
2021/01/22 06:11:00;;;;;;;13.00;11.82;;;1.40;99.90;;;;;;5090533;28;20239;-75
2021/01/22 06:13:30;;;;;;;13.80;12.57;;;1.40;99.90;;;;;;5093649;28;20312;-74
2021/01/22 06:15:57;;;;;;;12.15;11.15;;;1.40;99.90;;;;;;5091623;28;20633;-75
2021/01/22 06:18:29;;;;;;;13.15;12.02;;;1.40;99.90;;;;;;5088201;28;20226;-75
2021/01/22 06:21:04;;;;;;;12.25;11.25;;;1.50;99.90;;;;;;5087003;28;20234;-75
2021/01/22 06:23:34;;;;;;;12.43;11.35;;;1.50;99.90;;;;;;5094397;28;20216;-75
2021/01/22 06:26:03;;;;;;;12.27;11.27;;;1.50;99.90;;;;;;5093316;28;20225;-75
2021/01/22 06:28:32;;;;;;;11.00;10.10;;;1.60;99.90;;;;;;5083512;28;20232;-74
2021/01/22 06:30:58;;;;;;;10.85;9.95;;;1.60;99.90;;;;;;5082761;28;20224;-74
2021/01/22 06:33:25;;;;;;;12.38;11.27;;;1.60;99.90;;;;;;5083751;28;20639;-75
2021/01/22 06:35:53;;;;;;;13.00;11.82;;;1.60;99.90;;;;;;5080926;28;20232;-75
2021/01/22 06:38:23;;;;;;;13.65;12.45;;;1.60;99.90;;;;;;5083069;28;20257;-75
2021/01/22 06:40:52;;;;;;;12.55;11.35;;;1.50;99.90;;;;;;5085484;28;20312;-75
2021/01/22 06:43:19;;;;;;;12.38;11.30;;;1.50;99.90;;;;;;5084848;28;20308;-75
2021/01/22 06:45:46;;;;;;;12.95;11.75;;;1.50;99.90;;;;;;5093179;28;20226;-75
2021/01/22 06:48:12;;;;;;;12.10;11.10;;;1.50;99.90;;;;;;5080132;28;20229;-76
2021/01/22 06:50:39;;;;;;;12.50;11.32;;;1.50;99.90;;;;;;5086616;28;20258;-75
2021/01/22 06:53:16;;;;;;;11.68;10.68;;;1.60;99.90;;;;;;5083994;28;20266;-75
2021/01/22 06:56:11;;;;;;;11.52;10.52;;;1.60;99.90;;;;;;5079410;28;20232;-76
2021/01/22 06:58:38;;;;;;;12.02;11.05;;;1.70;99.90;;;;;;5085565;28;20674;-75
2021/01/22 07:01:21;;;;;;;11.77;10.68;;;1.70;99.90;;;;;;5086771;28;20649;-75
2021/01/22 07:03:50;;;;;;;13.35;12.20;;;1.70;99.90;;;;;;5082464;28;20524;-73
2021/01/22 07:06:55;;;;;;;12.45;11.35;;;1.60;99.90;;;;;;5079037;28;20256;-76
2021/01/22 07:09:22;;;;;;;13.32;12.20;;;1.60;99.90;;;;;;5087030;28;20296;-74
2021/01/22 07:11:58;;;;;;;12.13;11.07;;;1.50;99.90;;;;;;5083216;28;20224;-76
2021/01/22 07:14:41;;;;;;;12.93;11.82;;;1.50;99.90;;;;;;5080831;28;20233;-75
2021/01/22 07:17:15;;;;;;;13.30;12.00;;;1.50;99.90;;;;;;5079303;28;20221;-76
2021/01/22 07:19:51;;;;;;;11.55;10.55;;;1.50;99.90;;;;;;5087203;28;20212;-76
2021/01/22 07:22:18;;;;;;;12.10;11.02;;;1.60;99.90;;;;;;5086167;28;20297;-74
2021/01/22 07:24:47;;;;;;;16.42;14.80;;;1.60;99.90;;;;;;5085626;28;20741;-76
2021/01/22 07:27:16;;;;;;;25.58;15.85;;;1.70;99.90;;;;;;5084262;28;20229;-73
2021/01/22 07:29:43;;;;;;;16.27;14.75;;;1.60;99.90;;;;;;5083519;28;20626;-74
2021/01/22 07:32:11;;;;;;;19.33;17.52;;;1.60;99.90;;;;;;5082907;28;20762;-75
2021/01/22 07:34:43;;;;;;;16.17;14.68;;;1.60;99.90;;;;;;5080442;28;20210;-73
2021/01/22 07:37:11;;;;;;;16.23;14.75;;;1.50;99.90;;;;;;5085953;28;20678;-77
2021/01/22 07:39:37;;;;;;;15.73;14.32;;;1.50;99.90;;;;;;5093058;28;20633;-76
2021/01/22 07:42:06;;;;;;;14.90;13.50;;;1.50;99.90;;;;;;5081001;28;20639;-75
2021/01/22 07:44:34;;;;;;;16.00;14.40;;;1.60;99.90;;;;;;5083423;28;20225;-75
2021/01/22 07:47:00;;;;;;;16.42;14.85;;;1.60;99.90;;;;;;5083039;28;20232;-75
2021/01/22 07:49:27;;;;;;;15.98;14.48;;;1.60;99.90;;;;;;5084554;28;20784;-75
2021/01/22 07:51:54;;;;;;;17.60;15.98;;;1.60;99.90;;;;;;5079462;28;20311;-75
2021/01/22 07:54:20;;;;;;;16.38;14.82;;;1.50;99.90;;;;;;5083451;28;20435;-72
2021/01/22 07:56:48;;;;;;;15.50;14.00;;;1.50;99.90;;;;;;5089825;28;20689;-75
2021/01/22 07:59:15;;;;;;;13.60;12.30;;;1.60;99.90;;;;;;5084316;28;20217;-73
2021/01/22 08:01:43;;;;;;;14.60;13.20;;;1.70;99.90;;;;;;5076888;28;20221;-75
2021/01/22 08:04:10;;;;;;;13.45;12.35;;;1.70;99.90;;;;;;5074429;28;20217;-73
2021/01/22 08:06:48;;;;;;;14.90;13.55;;;1.80;99.90;;;;;;5078753;28;20216;-75
2021/01/22 08:09:17;;;;;;;14.55;13.30;;;1.80;99.90;;;;;;5079874;28;20224;-75
2021/01/22 08:11:44;;;;;;;13.23;12.05;;;1.90;99.90;;;;;;5075427;28;20227;-73
2021/01/22 08:14:10;;;;;;;13.63;12.43;;;2.00;99.90;;;;;;5084623;28;20237;-74
2021/01/22 08:16:38;;;;;;;13.70;12.40;;;2.10;99.90;;;;;;5080424;28;20217;-75
2021/01/22 08:19:06;;;;;;;14.02;12.80;;;2.10;99.90;;;;;;5081646;28;20220;-75
2021/01/22 08:21:37;;;;;;;14.15;12.95;;;2.10;99.90;;;;;;5082504;28;20225;-73
2021/01/22 08:24:08;;;;;;;14.75;13.40;;;2.10;99.90;;;;;;5080750;28;20213;-74
2021/01/22 08:26:36;;;;;;;14.27;13.07;;;2.10;99.90;;;;;;5086241;28;20324;-74
2021/01/22 08:29:03;;;;;;;12.27;11.20;;;2.10;99.90;;;;;;5075529;28;20763;-74
2021/01/22 08:31:32;;;;;;;11.95;10.95;;;2.10;99.90;;;;;;5101686;28;20240;-73
2021/01/22 08:34:00;;;;;;;11.57;10.57;;;2.20;99.90;;;;;;5085718;28;20217;-74
2021/01/22 08:36:29;;;;;;;11.48;10.55;;;2.20;99.90;;;;;;5079872;28;20243;-76
2021/01/22 08:38:57;;;;;;;11.88;10.88;;;2.20;99.90;;;;;;5076344;28;20279;-75
2021/01/22 08:41:25;;;;;;;10.65;9.77;;;2.20;99.90;;;;;;5079454;28;20319;-75
2021/01/22 08:43:52;;;;;;;12.18;11.18;;;2.30;99.90;;;;;;5093887;28;20274;-75
2021/01/22 08:46:20;;;;;;;11.45;10.55;;;2.20;99.90;;;;;;5087972;28;20218;-74
2021/01/22 08:48:47;;;;;;;11.80;10.80;;;2.20;99.90;;;;;;5084968;28;20749;-73
2021/01/22 08:51:14;;;;;;;11.48;10.48;;;2.20;99.90;;;;;;5078845;28;20560;-75
2021/01/22 08:53:59;;;;;;;11.88;10.73;;;2.20;99.90;;;;;;5085565;28;20216;-73
2021/01/22 08:56:25;;;;;;;10.75;9.90;;;2.30;99.90;;;;;;5083775;28;20225;-75
2021/01/22 08:59:00;;;;;;;11.90;10.90;;;2.30;99.90;;;;;;5081761;28;20267;-75
2021/01/22 09:01:55;;;;;;;11.45;10.55;;;2.40;99.90;;;;;;5081077;28;20243;-75
2021/01/22 09:04:30;;;;;;;10.57;9.68;;;2.40;99.90;;;;;;5077284;28;20221;-74
2021/01/22 09:06:58;;;;;;;11.57;10.68;;;2.40;99.90;;;;;;5085896;28;20526;-75
2021/01/22 09:09:47;;;;;;;11.18;10.18;;;2.40;99.90;;;;;;5080186;28;20504;-74
2021/01/22 09:12:18;;;;;;;12.20;11.07;;;2.40;99.90;;;;;;5079903;28;20252;-75
2021/01/22 09:14:53;;;;;;;12.27;11.20;;;2.40;99.90;;;;;;5074367;28;20949;-76
2021/01/22 09:17:38;;;;;;;13.07;11.98;;;2.40;99.90;;;;;;5076897;28;20216;-73
2021/01/22 09:20:09;;;;;;;11.82;10.80;;;2.40;99.90;;;;;;5080329;28;20638;-74
2021/01/22 09:22:38;;;;;;;10.55;9.73;;;2.50;99.90;;;;;;5085871;28;20225;-75
2021/01/22 09:25:08;;;;;;;10.13;9.32;;;2.50;99.90;;;;;;5084268;28;20415;-75
2021/01/22 09:27:35;;;;;;;10.13;9.32;;;2.60;99.90;;;;;;5080281;28;20247;-74
2021/01/22 09:30:03;;;;;;;11.32;10.35;;;2.60;99.90;;;;;;5082214;28;20310;-74
2021/01/22 09:32:30;;;;;;;11.18;10.25;;;2.70;99.90;;;;;;5082894;28;20221;-73
2021/01/22 09:34:56;;;;;;;12.32;11.30;;;2.70;99.90;;;;;;5081054;28;20228;-72
2021/01/22 09:37:23;;;;;;;11.95;10.93;;;2.70;99.90;;;;;;5077716;28;20719;-73
2021/01/22 09:39:50;;;;;;;17.00;15.50;;;2.80;99.90;;;;;;5079292;28;20220;-74
2021/01/22 09:42:17;;;;;;;60.03;19.75;;;2.70;99.90;;;;;;5078987;28;20458;-73
2021/01/22 09:44:44;;;;;;;18.60;16.77;;;2.70;99.90;;;;;;5080628;28;20247;-74
2021/01/22 09:47:11;;;;;;;19.52;17.58;;;2.60;99.90;;;;;;5082152;28;20232;-73
2021/01/22 09:49:37;;;;;;;19.58;17.75;;;2.60;99.90;;;;;;5077745;28;20749;-75
2021/01/22 09:52:04;;;;;;;19.50;17.67;;;2.60;99.90;;;;;;5089941;28;20221;-75
2021/01/22 09:54:31;;;;;;;22.08;20.08;;;2.60;99.90;;;;;;5084455;28;20217;-75
2021/01/22 09:56:57;;;;;;;22.40;20.30;;;2.70;99.90;;;;;;5081776;28;20221;-73
2021/01/22 09:59:25;;;;;;;20.60;18.60;;;2.80;99.90;;;;;;5076137;28;20230;-75
2021/01/22 10:01:51;;;;;;;20.13;18.23;;;2.80;99.90;;;;;;5077463;28;20278;-75
2021/01/22 10:04:18;;;;;;;19.80;17.90;;;2.80;99.90;;;;;;5086908;28;20222;-75
2021/01/22 10:06:45;;;;;;;18.00;16.35;;;2.80;99.90;;;;;;5087463;28;20220;-73
2021/01/22 10:09:11;;;;;;;19.50;17.70;;;2.80;99.90;;;;;;5087259;28;20229;-76
2021/01/22 10:11:39;;;;;;;18.35;16.55;;;2.80;99.90;;;;;;5075263;28;20247;-74
2021/01/22 10:14:05;;;;;;;17.10;15.55;;;2.80;99.90;;;;;;5084368;28;20220;-73
2021/01/22 10:16:33;;;;;;;17.92;16.25;;;2.90;99.90;;;;;;5095928;28;21727;-75
2021/01/22 10:19:00;;;;;;;16.50;15.10;;;3.00;99.90;;;;;;5078953;28;20428;-74
2021/01/22 10:21:27;;;;;;;16.75;15.25;;;3.10;99.90;;;;;;5072744;28;20498;-76
2021/01/22 10:23:54;;;;;;;17.75;16.00;;;3.10;99.90;;;;;;5070604;28;20229;-73
2021/01/22 10:26:21;;;;;;;17.90;16.10;;;3.10;99.90;;;;;;5080760;28;20217;-74
2021/01/22 10:28:49;;;;;;;18.17;16.38;;;3.10;99.90;;;;;;5077582;28;20255;-76
2021/01/22 10:31:16;;;;;;;17.95;16.17;;;3.10;99.90;;;;;;5088927;28;20530;-75
2021/01/22 10:33:43;;;;;;;16.73;15.20;;;3.10;99.90;;;;;;5077530;28;20540;-73
2021/01/22 10:36:10;;;;;;;17.98;16.27;;;3.20;99.90;;;;;;5071848;28;20217;-75
2021/01/22 10:38:37;;;;;;;17.88;16.15;;;3.20;99.90;;;;;;5080538;28;20220;-75
2021/01/22 10:41:04;;;;;;;19.15;16.05;;;3.20;99.90;;;;;;5075489;28;20224;-76
2021/01/22 10:43:31;;;;;;;18.25;16.65;;;3.20;99.90;;;;;;5076482;28;20436;-75
2021/01/22 10:45:59;;;;;;;20.25;18.40;;;3.20;99.90;;;;;;5078072;28;20244;-75
2021/01/22 10:48:25;;;;;;;19.23;17.42;;;3.30;99.90;;;;;;5075014;28;20548;-75
2021/01/22 10:50:53;;;;;;;19.50;17.60;;;3.30;99.90;;;;;;5075691;28;20561;-73
2021/01/22 10:53:21;;;;;;;22.10;19.98;;;3.40;99.90;;;;;;5078230;28;20221;-76
2021/01/22 10:55:48;;;;;;;18.90;17.10;;;3.40;99.90;;;;;;5074843;28;20221;-76
2021/01/22 10:58:15;;;;;;;19.10;17.30;;;3.50;99.90;;;;;;5075163;28;20228;-77
2021/01/22 11:00:41;;;;;;;20.88;18.88;;;3.60;99.90;;;;;;5078625;28;20228;-78
2021/01/22 11:03:08;;;;;;;38.15;25.23;;;3.60;99.90;;;;;;5079259;28;20212;-77
2021/01/22 11:05:35;;;;;;;27.80;24.98;;;3.60;99.90;;;;;;5082442;28;20765;-74
2021/01/22 11:08:03;;;;;;;27.13;24.17;;;3.40;99.90;;;;;;5091524;28;20390;-75
2021/01/22 11:10:30;;;;;;;30.15;27.00;;;3.40;99.90;;;;;;5080146;28;20240;-76
2021/01/22 11:12:57;;;;;;;54.83;27.65;;;3.30;99.90;;;;;;5075971;28;20264;-74
2021/01/22 11:15:23;;;;;;;28.48;25.58;;;3.30;99.90;;;;;;5077283;28;20218;-76
2021/01/22 11:17:50;;;;;;;26.75;22.33;;;3.30;99.90;;;;;;5068688;28;20509;-75
2021/01/22 11:20:18;;;;;;;27.40;24.70;;;3.20;99.90;;;;;;5078900;28;20789;-75
2021/01/22 11:22:46;;;;;;;26.38;23.67;;;3.30;99.90;;;;;;5083881;28;20662;-75
2021/01/22 11:25:15;;;;;;;25.23;22.67;;;3.30;99.90;;;;;;5077886;28;20226;-76
2021/01/22 11:27:42;;;;;;;25.92;23.27;;;3.40;99.90;;;;;;5082492;28;20298;-77
2021/01/22 11:30:10;;;;;;;25.58;23.02;;;3.50;99.90;;;;;;5076682;28;20514;-74
2021/01/22 11:32:37;;;;;;;19.10;17.25;;;3.60;99.90;;;;;;5082246;28;20236;-76
2021/01/22 11:35:05;;;;;;;16.10;14.60;;;3.70;99.90;;;;;;5078536;28;20221;-74
2021/01/22 11:37:32;;;;;;;15.07;13.70;;;3.80;99.90;;;;;;5082170;28;20221;-73
2021/01/22 11:39:59;;;;;;;15.80;14.27;;;3.80;99.90;;;;;;5076663;28;20252;-75
2021/01/22 11:42:26;;;;;;;18.88;16.98;;;3.90;99.90;;;;;;5081115;28;20608;-75
2021/01/22 11:44:53;;;;;;;22.88;20.42;;;3.90;99.90;;;;;;5073593;28;20214;-73
2021/01/22 11:47:20;;;;;;;24.95;22.45;;;3.80;99.90;;;;;;5080223;28;20317;-73
2021/01/22 11:49:46;;;;;;;24.58;22.15;;;3.80;99.90;;;;;;5085206;28;20702;-73
2021/01/22 11:52:13;;;;;;;25.70;22.77;;;3.80;99.90;;;;;;5079764;28;20229;-74
2021/01/22 11:54:39;;;;;;;22.98;20.58;;;3.80;99.90;;;;;;5087048;28;20216;-76
2021/01/22 11:57:06;;;;;;;20.25;18.25;;;3.80;99.90;;;;;;5082735;28;20224;-76
2021/01/22 11:59:34;;;;;;;20.20;18.20;;;3.60;99.90;;;;;;5088316;28;20224;-77
2021/01/22 12:02:00;;;;;;;18.90;17.10;;;3.50;99.90;;;;;;5088658;28;20251;-76
2021/01/22 12:04:27;;;;;;;18.85;17.05;;;3.50;99.90;;;;;;5082266;28;20232;-77
2021/01/22 12:06:53;;;;;;;25.13;22.60;;;3.50;99.90;;;;;;5081189;28;20275;-76
2021/01/22 12:09:20;;;;;;;21.65;19.55;;;3.60;99.90;;;;;;5082958;28;20217;-76
2021/01/22 12:11:47;;;;;;;20.40;18.40;;;3.50;99.90;;;;;;5077893;28;20236;-76
2021/01/22 12:14:13;;;;;;;19.50;17.60;;;3.40;99.90;;;;;;5084110;28;20280;-76
2021/01/22 12:16:41;;;;;;;20.13;18.02;;;3.30;99.90;;;;;;5089285;28;20220;-77
2021/01/22 12:19:07;;;;;;;20.95;18.95;;;3.30;99.90;;;;;;5084401;28;20221;-76
2021/01/22 12:21:34;;;;;;;21.00;18.90;;;3.40;99.90;;;;;;5091383;28;20228;-75
2021/01/22 12:24:01;;;;;;;17.98;16.17;;;3.40;99.90;;;;;;5096191;28;20224;-76
2021/01/22 12:26:27;;;;;;;15.65;14.25;;;3.50;99.90;;;;;;5090858;28;20703;-77
2021/01/22 12:28:54;;;;;;;13.55;12.38;;;3.50;99.90;;;;;;5093381;28;20232;-76
2021/01/22 12:31:21;;;;;;;12.65;11.45;;;3.60;99.90;;;;;;5091111;28;20217;-76
2021/01/22 12:33:48;;;;;;;12.25;11.23;;;3.60;99.90;;;;;;5089044;28;20232;-76
2021/01/22 12:36:15;;;;;;;12.48;11.38;;;3.70;99.90;;;;;;5086803;28;20213;-75
2021/01/22 12:38:42;;;;;;;9.90;9.10;;;3.80;99.90;;;;;;5096601;28;20220;-76
2021/01/22 12:41:08;;;;;;;15.40;13.93;;;3.90;99.90;;;;;;5083023;28;20777;-77
2021/01/22 12:43:35;;;;;;;17.45;15.75;;;3.90;99.90;;;;;;5087735;28;20221;-77